sensor_id;sensor_type;location;lat;lon;timestamp;P1;durP1;ratioP1;P2;durP2;ratioP2
69246;SDS011;56358;56.328;43.992;2023-02-13T00:01:38;1.48;;;0.98;;
69246;SDS011;56358;56.328;43.992;2023-02-13T00:03:39;1.98;;;1.00;;
69246;SDS011;56358;56.328;43.992;2023-02-13T00:05:39;1.60;;;0.98;;
69246;SDS011;56358;56.328;43.992;2023-02-13T00:07:40;1.23;;;0.85;;
69246;SDS011;56358;56.328;43.992;2023-02-13T00:09:41;1.98;;;1.05;;
69246;SDS011;56358;56.328;43.992;2023-02-13T00:11:41;2.45;;;0.90;;
69246;SDS011;56358;56.328;43.992;2023-02-13T00:13:42;4.43;;;1.20;;
69246;SDS011;56358;56.328;43.992;2023-02-13T00:15:43;2.45;;;0.90;;
69246;SDS011;56358;56.328;43.992;2023-02-13T00:17:43;1.15;;;0.75;;
69246;SDS011;56358;56.328;43.992;2023-02-13T00:19:44;2.85;;;1.60;;
69246;SDS011;56358;56.328;43.992;2023-02-13T00:21:44;2.63;;;1.42;;
69246;SDS011;56358;56.328;43.992;2023-02-13T00:23:45;4.40;;;1.40;;
69246;SDS011;56358;56.328;43.992;2023-02-13T00:25:46;2.72;;;1.02;;
69246;SDS011;56358;56.328;43.992;2023-02-13T00:27:46;4.22;;;1.52;;
69246;SDS011;56358;56.328;43.992;2023-02-13T00:29:47;2.25;;;1.15;;
69246;SDS011;56358;56.328;43.992;2023-02-13T00:31:48;2.50;;;1.05;;
69246;SDS011;56358;56.328;43.992;2023-02-13T00:33:48;5.43;;;1.10;;
69246;SDS011;56358;56.328;43.992;2023-02-13T00:35:49;2.67;;;1.20;;
69246;SDS011;56358;56.328;43.992;2023-02-13T00:37:50;4.55;;;1.27;;
69246;SDS011;56358;56.328;43.992;2023-02-13T00:39:51;1.48;;;1.13;;
69246;SDS011;56358;56.328;43.992;2023-02-13T00:41:51;3.63;;;1.20;;
69246;SDS011;56358;56.328;43.992;2023-02-13T00:43:53;2.08;;;1.33;;
69246;SDS011;56358;56.328;43.992;2023-02-13T00:45:53;5.82;;;1.05;;
69246;SDS011;56358;56.328;43.992;2023-02-13T00:47:54;3.92;;;1.70;;
69246;SDS011;56358;56.328;43.992;2023-02-13T00:49:55;7.35;;;1.23;;
69246;SDS011;56358;56.328;43.992;2023-02-13T00:51:55;3.58;;;1.42;;
69246;SDS011;56358;56.328;43.992;2023-02-13T00:53:56;1.92;;;1.13;;
69246;SDS011;56358;56.328;43.992;2023-02-13T00:55:56;2.75;;;1.38;;
69246;SDS011;56358;56.328;43.992;2023-02-13T00:57:57;4.47;;;1.30;;
69246;SDS011;56358;56.328;43.992;2023-02-13T00:59:58;2.28;;;1.10;;
69246;SDS011;56358;56.328;43.992;2023-02-13T01:01:58;3.85;;;1.27;;
69246;SDS011;56358;56.328;43.992;2023-02-13T01:03:59;2.85;;;1.00;;
69246;SDS011;56358;56.328;43.992;2023-02-13T01:06:00;4.28;;;1.08;;
69246;SDS011;56358;56.328;43.992;2023-02-13T01:08:00;4.78;;;1.17;;
69246;SDS011;56358;56.328;43.992;2023-02-13T01:10:01;2.63;;;1.30;;
69246;SDS011;56358;56.328;43.992;2023-02-13T01:12:03;3.80;;;1.00;;
69246;SDS011;56358;56.328;43.992;2023-02-13T01:14:04;3.58;;;1.33;;
69246;SDS011;56358;56.328;43.992;2023-02-13T01:16:05;4.40;;;1.55;;
69246;SDS011;56358;56.328;43.992;2023-02-13T01:18:06;2.05;;;1.10;;
69246;SDS011;56358;56.328;43.992;2023-02-13T01:20:07;2.72;;;0.80;;
69246;SDS011;56358;56.328;43.992;2023-02-13T01:22:09;1.27;;;0.90;;
69246;SDS011;56358;56.328;43.992;2023-02-13T01:24:10;2.08;;;1.27;;
69246;SDS011;56358;56.328;43.992;2023-02-13T01:26:22;2.83;;;1.45;;
69246;SDS011;56358;56.328;43.992;2023-02-13T01:28:23;2.58;;;1.33;;
69246;SDS011;56358;56.328;43.992;2023-02-13T01:30:24;1.27;;;1.00;;
69246;SDS011;56358;56.328;43.992;2023-02-13T01:32:25;2.17;;;0.93;;
69246;SDS011;56358;56.328;43.992;2023-02-13T01:34:26;2.63;;;1.08;;
69246;SDS011;56358;56.328;43.992;2023-02-13T01:36:26;2.67;;;1.05;;
69246;SDS011;56358;56.328;43.992;2023-02-13T01:38:27;3.47;;;1.13;;
69246;SDS011;56358;56.328;43.992;2023-02-13T01:40:28;2.45;;;1.10;;
69246;SDS011;56358;56.328;43.992;2023-02-13T01:42:30;2.15;;;1.05;;
69246;SDS011;56358;56.328;43.992;2023-02-13T01:44:51;0.73;;;0.73;;
69246;SDS011;56358;56.328;43.992;2023-02-13T01:46:55;1.52;;;1.00;;
69246;SDS011;56358;56.328;43.992;2023-02-13T01:49:04;3.50;;;1.20;;
69246;SDS011;56358;56.328;43.992;2023-02-13T01:51:14;1.90;;;1.02;;
69246;SDS011;56358;56.328;43.992;2023-02-13T01:53:32;1.70;;;1.27;;
69246;SDS011;56358;56.328;43.992;2023-02-13T01:55:49;2.25;;;1.10;;
69246;SDS011;56358;56.328;43.992;2023-02-13T01:57:57;4.28;;;1.50;;
69246;SDS011;56358;56.328;43.992;2023-02-13T02:00:10;2.15;;;1.10;;
69246;SDS011;56358;56.328;43.992;2023-02-13T02:02:14;2.08;;;1.38;;
69246;SDS011;56358;56.328;43.992;2023-02-13T02:04:19;3.45;;;0.90;;
69246;SDS011;56358;56.328;43.992;2023-02-13T02:06:33;1.85;;;1.10;;
69246;SDS011;56358;56.328;43.992;2023-02-13T02:08:39;1.83;;;0.90;;
69246;SDS011;56358;56.328;43.992;2023-02-13T02:10:40;2.53;;;1.20;;
69246;SDS011;56358;56.328;43.992;2023-02-13T02:14:54;2.33;;;1.15;;
69246;SDS011;56358;56.328;43.992;2023-02-13T02:16:57;2.35;;;1.08;;
69246;SDS011;56358;56.328;43.992;2023-02-13T02:18:58;2.83;;;0.93;;
69246;SDS011;56358;56.328;43.992;2023-02-13T02:30:23;2.25;;;1.25;;
69246;SDS011;56358;56.328;43.992;2023-02-13T02:32:44;7.13;;;1.73;;
69246;SDS011;56358;56.328;43.992;2023-02-13T02:37:29;3.80;;;1.52;;
69246;SDS011;56358;56.328;43.992;2023-02-13T02:41:57;4.75;;;1.50;;
69246;SDS011;56358;56.328;43.992;2023-02-13T02:53:08;5.97;;;1.90;;
69246;SDS011;56358;56.328;43.992;2023-02-13T02:55:34;4.95;;;1.70;;
69246;SDS011;56358;56.328;43.992;2023-02-13T02:57:52;2.22;;;1.48;;
69246;SDS011;56358;56.328;43.992;2023-02-13T03:00:28;3.47;;;1.50;;
69246;SDS011;56358;56.328;43.992;2023-02-13T03:02:52;6.90;;;1.70;;
69246;SDS011;56358;56.328;43.992;2023-02-13T03:05:14;5.53;;;2.15;;
69246;SDS011;56358;56.328;43.992;2023-02-13T03:07:40;7.13;;;2.03;;
69246;SDS011;56358;56.328;43.992;2023-02-13T03:09:48;5.38;;;1.83;;
69246;SDS011;56358;56.328;43.992;2023-02-13T03:12:13;6.40;;;2.28;;
69246;SDS011;56358;56.328;43.992;2023-02-13T03:14:37;4.85;;;2.25;;
69246;SDS011;56358;56.328;43.992;2023-02-13T03:16:38;5.45;;;2.03;;
69246;SDS011;56358;56.328;43.992;2023-02-13T03:18:57;4.15;;;2.45;;
69246;SDS011;56358;56.328;43.992;2023-02-13T03:21:20;5.50;;;1.80;;
69246;SDS011;56358;56.328;43.992;2023-02-13T03:23:56;3.20;;;1.73;;
69246;SDS011;56358;56.328;43.992;2023-02-13T03:36:14;5.32;;;2.42;;
69246;SDS011;56358;56.328;43.992;2023-02-13T03:38:52;4.50;;;2.28;;
69246;SDS011;56358;56.328;43.992;2023-02-13T03:41:15;8.90;;;2.25;;
69246;SDS011;56358;56.328;43.992;2023-02-13T03:43:22;7.43;;;2.90;;
69246;SDS011;56358;56.328;43.992;2023-02-13T03:45:27;4.63;;;2.10;;
69246;SDS011;56358;56.328;43.992;2023-02-13T03:47:49;4.32;;;2.00;;
69246;SDS011;56358;56.328;43.992;2023-02-13T03:49:53;3.50;;;2.08;;
69246;SDS011;56358;56.328;43.992;2023-02-13T03:52:12;4.82;;;2.30;;
69246;SDS011;56358;56.328;43.992;2023-02-13T03:54:34;4.85;;;2.35;;
69246;SDS011;56358;56.328;43.992;2023-02-13T03:57:00;4.07;;;1.80;;
69246;SDS011;56358;56.328;43.992;2023-02-13T03:59:23;8.45;;;3.05;;
69246;SDS011;56358;56.328;43.992;2023-02-13T04:01:30;6.82;;;2.78;;
69246;SDS011;56358;56.328;43.992;2023-02-13T04:03:41;7.18;;;2.63;;
69246;SDS011;56358;56.328;43.992;2023-02-13T04:06:06;13.63;;;3.40;;
69246;SDS011;56358;56.328;43.992;2023-02-13T04:08:12;8.85;;;3.55;;
69246;SDS011;56358;56.328;43.992;2023-02-13T04:10:13;7.15;;;3.20;;
69246;SDS011;56358;56.328;43.992;2023-02-13T04:12:20;7.70;;;3.03;;
69246;SDS011;56358;56.328;43.992;2023-02-13T04:14:37;6.72;;;3.20;;
69246;SDS011;56358;56.328;43.992;2023-02-13T04:16:44;5.45;;;2.83;;
69246;SDS011;56358;56.328;43.992;2023-02-13T04:18:49;8.63;;;2.60;;
69246;SDS011;56358;56.328;43.992;2023-02-13T04:20:51;11.63;;;3.95;;
69246;SDS011;56358;56.328;43.992;2023-02-13T04:22:52;7.07;;;2.85;;
69246;SDS011;56358;56.328;43.992;2023-02-13T04:24:53;9.32;;;2.97;;
69246;SDS011;56358;56.328;43.992;2023-02-13T04:26:53;7.22;;;3.40;;
69246;SDS011;56358;56.328;43.992;2023-02-13T04:28:55;12.63;;;4.07;;
69246;SDS011;56358;56.328;43.992;2023-02-13T04:30:56;8.35;;;4.20;;
69246;SDS011;56358;56.328;43.992;2023-02-13T04:32:56;9.45;;;3.75;;
69246;SDS011;56358;56.328;43.992;2023-02-13T04:34:57;5.72;;;3.22;;
69246;SDS011;56358;56.328;43.992;2023-02-13T04:36:58;11.45;;;3.95;;
69246;SDS011;56358;56.328;43.992;2023-02-13T04:38:58;8.35;;;2.47;;
69246;SDS011;56358;56.328;43.992;2023-02-13T04:40:59;7.90;;;2.97;;
69246;SDS011;56358;56.328;43.992;2023-02-13T04:43:00;12.63;;;3.13;;
69246;SDS011;56358;56.328;43.992;2023-02-13T04:45:00;6.03;;;3.42;;
69246;SDS011;56358;56.328;43.992;2023-02-13T04:47:01;6.22;;;3.78;;
69246;SDS011;56358;56.328;43.992;2023-02-13T04:49:02;10.15;;;3.60;;
69246;SDS011;56358;56.328;43.992;2023-02-13T04:51:03;7.65;;;3.47;;
69246;SDS011;56358;56.328;43.992;2023-02-13T04:53:04;9.07;;;3.33;;
69246;SDS011;56358;56.328;43.992;2023-02-13T04:55:04;9.38;;;3.63;;
69246;SDS011;56358;56.328;43.992;2023-02-13T04:57:05;8.10;;;4.05;;
69246;SDS011;56358;56.328;43.992;2023-02-13T04:59:06;10.68;;;4.28;;
69246;SDS011;56358;56.328;43.992;2023-02-13T05:01:10;11.93;;;4.35;;
69246;SDS011;56358;56.328;43.992;2023-02-13T05:03:14;18.15;;;4.93;;
69246;SDS011;56358;56.328;43.992;2023-02-13T05:05:15;16.38;;;4.28;;
69246;SDS011;56358;56.328;43.992;2023-02-13T05:07:16;10.70;;;4.05;;
69246;SDS011;56358;56.328;43.992;2023-02-13T05:09:17;11.07;;;4.05;;
69246;SDS011;56358;56.328;43.992;2023-02-13T05:11:17;15.40;;;4.45;;
69246;SDS011;56358;56.328;43.992;2023-02-13T05:13:18;12.05;;;4.03;;
69246;SDS011;56358;56.328;43.992;2023-02-13T05:15:20;7.82;;;3.78;;
69246;SDS011;56358;56.328;43.992;2023-02-13T05:17:22;12.93;;;5.32;;
69246;SDS011;56358;56.328;43.992;2023-02-13T05:19:23;11.30;;;3.85;;
69246;SDS011;56358;56.328;43.992;2023-02-13T05:21:23;14.07;;;4.72;;
69246;SDS011;56358;56.328;43.992;2023-02-13T05:23:43;18.33;;;6.45;;
69246;SDS011;56358;56.328;43.992;2023-02-13T05:25:43;11.48;;;4.32;;
69246;SDS011;56358;56.328;43.992;2023-02-13T05:27:44;25.33;;;7.25;;
69246;SDS011;56358;56.328;43.992;2023-02-13T05:29:44;21.95;;;8.98;;
69246;SDS011;56358;56.328;43.992;2023-02-13T05:31:45;18.80;;;7.00;;
69246;SDS011;56358;56.328;43.992;2023-02-13T05:33:47;13.23;;;6.40;;
69246;SDS011;56358;56.328;43.992;2023-02-13T05:35:48;15.07;;;6.05;;
69246;SDS011;56358;56.328;43.992;2023-02-13T05:37:49;13.63;;;4.85;;
69246;SDS011;56358;56.328;43.992;2023-02-13T05:39:49;13.07;;;4.82;;
69246;SDS011;56358;56.328;43.992;2023-02-13T05:41:50;14.70;;;6.90;;
69246;SDS011;56358;56.328;43.992;2023-02-13T05:43:51;13.23;;;5.55;;
69246;SDS011;56358;56.328;43.992;2023-02-13T05:45:59;14.00;;;5.28;;
69246;SDS011;56358;56.328;43.992;2023-02-13T05:48:01;13.52;;;5.28;;
69246;SDS011;56358;56.328;43.992;2023-02-13T05:50:02;14.30;;;4.35;;
69246;SDS011;56358;56.328;43.992;2023-02-13T05:52:04;20.23;;;5.78;;
69246;SDS011;56358;56.328;43.992;2023-02-13T05:54:05;12.45;;;5.72;;
69246;SDS011;56358;56.328;43.992;2023-02-13T05:56:06;17.50;;;5.57;;
69246;SDS011;56358;56.328;43.992;2023-02-13T05:58:06;15.27;;;5.50;;
69246;SDS011;56358;56.328;43.992;2023-02-13T06:00:08;10.95;;;4.50;;
69246;SDS011;56358;56.328;43.992;2023-02-13T06:02:10;8.15;;;3.88;;
69246;SDS011;56358;56.328;43.992;2023-02-13T06:04:10;14.35;;;5.20;;
69246;SDS011;56358;56.328;43.992;2023-02-13T06:06:11;11.07;;;4.63;;
69246;SDS011;56358;56.328;43.992;2023-02-13T06:08:12;16.00;;;5.43;;
69246;SDS011;56358;56.328;43.992;2023-02-13T06:10:12;16.27;;;4.85;;
69246;SDS011;56358;56.328;43.992;2023-02-13T06:12:13;12.15;;;5.47;;
69246;SDS011;56358;56.328;43.992;2023-02-13T06:14:14;12.15;;;4.15;;
69246;SDS011;56358;56.328;43.992;2023-02-13T06:16:14;28.30;;;8.30;;
69246;SDS011;56358;56.328;43.992;2023-02-13T06:18:15;10.43;;;3.63;;
69246;SDS011;56358;56.328;43.992;2023-02-13T06:20:16;16.50;;;5.28;;
69246;SDS011;56358;56.328;43.992;2023-02-13T06:22:17;13.20;;;5.03;;
69246;SDS011;56358;56.328;43.992;2023-02-13T06:24:17;17.10;;;5.57;;
69246;SDS011;56358;56.328;43.992;2023-02-13T06:26:18;15.73;;;5.72;;
69246;SDS011;56358;56.328;43.992;2023-02-13T06:28:19;15.68;;;5.90;;
69246;SDS011;56358;56.328;43.992;2023-02-13T06:30:19;13.80;;;5.45;;
69246;SDS011;56358;56.328;43.992;2023-02-13T06:32:20;14.93;;;5.82;;
69246;SDS011;56358;56.328;43.992;2023-02-13T06:34:21;14.07;;;5.43;;
69246;SDS011;56358;56.328;43.992;2023-02-13T06:36:22;15.93;;;6.53;;
69246;SDS011;56358;56.328;43.992;2023-02-13T06:38:22;17.48;;;7.28;;
69246;SDS011;56358;56.328;43.992;2023-02-13T06:40:23;22.65;;;7.20;;
69246;SDS011;56358;56.328;43.992;2023-02-13T06:42:24;13.27;;;5.70;;
69246;SDS011;56358;56.328;43.992;2023-02-13T06:44:24;18.77;;;7.43;;
69246;SDS011;56358;56.328;43.992;2023-02-13T06:46:25;12.85;;;5.95;;
69246;SDS011;56358;56.328;43.992;2023-02-13T06:48:26;12.27;;;6.47;;
69246;SDS011;56358;56.328;43.992;2023-02-13T06:50:26;15.38;;;6.63;;
69246;SDS011;56358;56.328;43.992;2023-02-13T06:52:27;18.67;;;6.70;;
69246;SDS011;56358;56.328;43.992;2023-02-13T06:54:29;15.23;;;6.43;;
69246;SDS011;56358;56.328;43.992;2023-02-13T06:56:30;15.65;;;6.25;;
69246;SDS011;56358;56.328;43.992;2023-02-13T06:58:32;15.18;;;6.78;;
69246;SDS011;56358;56.328;43.992;2023-02-13T07:00:33;17.88;;;7.53;;
69246;SDS011;56358;56.328;43.992;2023-02-13T07:02:34;16.83;;;5.93;;
69246;SDS011;56358;56.328;43.992;2023-02-13T07:04:36;12.73;;;6.25;;
69246;SDS011;56358;56.328;43.992;2023-02-13T07:06:37;13.02;;;5.60;;
69246;SDS011;56358;56.328;43.992;2023-02-13T07:08:38;13.63;;;5.90;;
69246;SDS011;56358;56.328;43.992;2023-02-13T07:10:39;15.00;;;6.88;;
69246;SDS011;56358;56.328;43.992;2023-02-13T07:12:40;17.37;;;6.40;;
69246;SDS011;56358;56.328;43.992;2023-02-13T07:14:42;18.33;;;7.63;;
69246;SDS011;56358;56.328;43.992;2023-02-13T07:16:43;21.58;;;8.15;;
69246;SDS011;56358;56.328;43.992;2023-02-13T07:18:43;19.80;;;8.43;;
69246;SDS011;56358;56.328;43.992;2023-02-13T07:20:44;17.73;;;7.43;;
69246;SDS011;56358;56.328;43.992;2023-02-13T07:22:45;24.17;;;9.57;;
69246;SDS011;56358;56.328;43.992;2023-02-13T07:24:45;22.23;;;8.57;;
69246;SDS011;56358;56.328;43.992;2023-02-13T07:26:46;19.92;;;7.25;;
69246;SDS011;56358;56.328;43.992;2023-02-13T07:28:47;15.43;;;5.50;;
69246;SDS011;56358;56.328;43.992;2023-02-13T07:30:47;12.95;;;6.30;;
69246;SDS011;56358;56.328;43.992;2023-02-13T07:32:48;11.70;;;4.75;;
69246;SDS011;56358;56.328;43.992;2023-02-13T07:34:50;11.70;;;4.65;;
69246;SDS011;56358;56.328;43.992;2023-02-13T07:36:51;13.75;;;4.95;;
69246;SDS011;56358;56.328;43.992;2023-02-13T07:38:51;9.38;;;4.45;;
69246;SDS011;56358;56.328;43.992;2023-02-13T07:40:52;12.57;;;4.53;;
69246;SDS011;56358;56.328;43.992;2023-02-13T07:42:53;10.35;;;4.43;;
69246;SDS011;56358;56.328;43.992;2023-02-13T07:44:54;8.05;;;3.53;;
69246;SDS011;56358;56.328;43.992;2023-02-13T07:46:54;12.95;;;4.45;;
69246;SDS011;56358;56.328;43.992;2023-02-13T07:48:55;10.35;;;4.65;;
69246;SDS011;56358;56.328;43.992;2023-02-13T07:51:00;13.73;;;5.43;;
69246;SDS011;56358;56.328;43.992;2023-02-13T07:53:02;10.80;;;4.97;;
69246;SDS011;56358;56.328;43.992;2023-02-13T07:55:03;11.55;;;5.45;;
69246;SDS011;56358;56.328;43.992;2023-02-13T07:57:05;14.70;;;6.13;;
69246;SDS011;56358;56.328;43.992;2023-02-13T07:59:05;17.30;;;5.82;;
69246;SDS011;56358;56.328;43.992;2023-02-13T08:01:07;17.10;;;6.28;;
69246;SDS011;56358;56.328;43.992;2023-02-13T08:03:09;14.55;;;5.75;;
69246;SDS011;56358;56.328;43.992;2023-02-13T08:05:10;19.90;;;7.28;;
69246;SDS011;56358;56.328;43.992;2023-02-13T08:07:11;18.05;;;6.65;;
69246;SDS011;56358;56.328;43.992;2023-02-13T08:09:17;16.23;;;7.55;;
69246;SDS011;56358;56.328;43.992;2023-02-13T08:11:37;13.38;;;6.70;;
69246;SDS011;56358;56.328;43.992;2023-02-13T08:13:53;15.35;;;6.35;;
69246;SDS011;56358;56.328;43.992;2023-02-13T08:15:54;15.85;;;6.15;;
69246;SDS011;56358;56.328;43.992;2023-02-13T08:17:55;15.80;;;6.43;;
69246;SDS011;56358;56.328;43.992;2023-02-13T08:19:55;20.40;;;6.38;;
69246;SDS011;56358;56.328;43.992;2023-02-13T08:21:56;16.00;;;5.50;;
69246;SDS011;56358;56.328;43.992;2023-02-13T08:23:57;20.48;;;5.85;;
69246;SDS011;56358;56.328;43.992;2023-02-13T08:26:01;11.73;;;5.00;;
69246;SDS011;56358;56.328;43.992;2023-02-13T08:28:02;11.23;;;5.78;;
69246;SDS011;56358;56.328;43.992;2023-02-13T08:30:04;15.43;;;6.00;;
69246;SDS011;56358;56.328;43.992;2023-02-13T08:32:05;17.40;;;6.55;;
69246;SDS011;56358;56.328;43.992;2023-02-13T08:34:06;11.02;;;5.50;;
69246;SDS011;56358;56.328;43.992;2023-02-13T08:36:07;14.68;;;5.95;;
69246;SDS011;56358;56.328;43.992;2023-02-13T08:38:07;14.98;;;6.20;;
69246;SDS011;56358;56.328;43.992;2023-02-13T08:40:09;14.07;;;5.55;;
69246;SDS011;56358;56.328;43.992;2023-02-13T08:42:09;18.60;;;6.03;;
69246;SDS011;56358;56.328;43.992;2023-02-13T08:44:10;17.55;;;6.40;;
69246;SDS011;56358;56.328;43.992;2023-02-13T08:46:11;15.32;;;6.10;;
69246;SDS011;56358;56.328;43.992;2023-02-13T08:48:11;17.20;;;6.88;;
69246;SDS011;56358;56.328;43.992;2023-02-13T08:50:12;16.80;;;7.03;;
69246;SDS011;56358;56.328;43.992;2023-02-13T08:52:13;18.50;;;6.60;;
69246;SDS011;56358;56.328;43.992;2023-02-13T08:54:13;20.02;;;9.02;;
69246;SDS011;56358;56.328;43.992;2023-02-13T08:56:14;17.25;;;7.85;;
69246;SDS011;56358;56.328;43.992;2023-02-13T08:58:15;15.18;;;7.50;;
69246;SDS011;56358;56.328;43.992;2023-02-13T09:00:16;16.70;;;6.38;;
69246;SDS011;56358;56.328;43.992;2023-02-13T09:02:17;13.20;;;6.05;;
69246;SDS011;56358;56.328;43.992;2023-02-13T09:04:17;10.45;;;4.97;;
69246;SDS011;56358;56.328;43.992;2023-02-13T09:06:18;10.20;;;4.68;;
69246;SDS011;56358;56.328;43.992;2023-02-13T09:08:19;14.82;;;5.60;;
69246;SDS011;56358;56.328;43.992;2023-02-13T09:10:19;10.95;;;4.90;;
69246;SDS011;56358;56.328;43.992;2023-02-13T09:12:20;10.88;;;4.97;;
69246;SDS011;56358;56.328;43.992;2023-02-13T09:14:21;13.70;;;5.10;;
69246;SDS011;56358;56.328;43.992;2023-02-13T09:16:21;10.70;;;4.82;;
69246;SDS011;56358;56.328;43.992;2023-02-13T09:18:22;9.98;;;4.45;;
69246;SDS011;56358;56.328;43.992;2023-02-13T09:20:23;9.75;;;5.07;;
69246;SDS011;56358;56.328;43.992;2023-02-13T09:22:24;15.40;;;5.45;;
69246;SDS011;56358;56.328;43.992;2023-02-13T09:24:26;11.70;;;5.63;;
69246;SDS011;56358;56.328;43.992;2023-02-13T09:26:27;31.25;;;12.25;;
69246;SDS011;56358;56.328;43.992;2023-02-13T09:28:31;13.95;;;6.65;;
69246;SDS011;56358;56.328;43.992;2023-02-13T09:30:33;9.23;;;4.72;;
69246;SDS011;56358;56.328;43.992;2023-02-13T09:32:34;17.70;;;6.63;;
69246;SDS011;56358;56.328;43.992;2023-02-13T09:34:36;13.57;;;5.70;;
69246;SDS011;56358;56.328;43.992;2023-02-13T09:36:37;17.00;;;6.03;;
69246;SDS011;56358;56.328;43.992;2023-02-13T09:38:38;13.48;;;4.97;;
69246;SDS011;56358;56.328;43.992;2023-02-13T09:40:49;13.90;;;6.30;;
69246;SDS011;56358;56.328;43.992;2023-02-13T09:42:58;10.77;;;5.18;;
69246;SDS011;56358;56.328;43.992;2023-02-13T09:45:06;12.90;;;4.97;;
69246;SDS011;56358;56.328;43.992;2023-02-13T09:47:16;12.25;;;5.00;;
69246;SDS011;56358;56.328;43.992;2023-02-13T09:49:32;9.93;;;4.05;;
69246;SDS011;56358;56.328;43.992;2023-02-13T09:51:36;10.15;;;4.63;;
69246;SDS011;56358;56.328;43.992;2023-02-13T09:53:36;11.60;;;4.97;;
69246;SDS011;56358;56.328;43.992;2023-02-13T09:55:44;11.85;;;4.90;;
69246;SDS011;56358;56.328;43.992;2023-02-13T09:58:38;12.57;;;5.40;;
69246;SDS011;56358;56.328;43.992;2023-02-13T10:03:10;11.98;;;5.20;;
69246;SDS011;56358;56.328;43.992;2023-02-13T10:09:16;10.35;;;5.05;;
69246;SDS011;56358;56.328;43.992;2023-02-13T10:11:52;8.20;;;4.30;;
69246;SDS011;56358;56.328;43.992;2023-02-13T10:14:04;6.35;;;3.75;;
69246;SDS011;56358;56.328;43.992;2023-02-13T10:16:19;8.93;;;4.28;;
69246;SDS011;56358;56.328;43.992;2023-02-13T10:18:24;9.10;;;3.70;;
69246;SDS011;56358;56.328;43.992;2023-02-13T10:20:34;6.72;;;3.65;;
69246;SDS011;56358;56.328;43.992;2023-02-13T10:22:42;11.82;;;3.50;;
69246;SDS011;56358;56.328;43.992;2023-02-13T10:24:52;9.30;;;3.65;;
69246;SDS011;56358;56.328;43.992;2023-02-13T10:27:10;5.68;;;2.72;;
69246;SDS011;56358;56.328;43.992;2023-02-13T10:31:57;11.23;;;4.78;;
69246;SDS011;56358;56.328;43.992;2023-02-13T10:34:02;10.13;;;3.75;;
69246;SDS011;56358;56.328;43.992;2023-02-13T10:38:13;9.45;;;3.80;;
69246;SDS011;56358;56.328;43.992;2023-02-13T10:40:16;7.10;;;3.90;;
69246;SDS011;56358;56.328;43.992;2023-02-13T10:44:37;11.07;;;4.30;;
69246;SDS011;56358;56.328;43.992;2023-02-13T10:51:39;6.53;;;3.40;;
69246;SDS011;56358;56.328;43.992;2023-02-13T10:56:01;9.20;;;4.13;;
69246;SDS011;56358;56.328;43.992;2023-02-13T10:58:21;9.32;;;3.30;;
69246;SDS011;56358;56.328;43.992;2023-02-13T11:02:32;8.90;;;4.28;;
69246;SDS011;56358;56.328;43.992;2023-02-13T11:04:33;13.10;;;5.00;;
69246;SDS011;56358;56.328;43.992;2023-02-13T11:06:35;12.30;;;4.75;;
69246;SDS011;56358;56.328;43.992;2023-02-13T11:08:41;13.70;;;5.00;;
69246;SDS011;56358;56.328;43.992;2023-02-13T11:10:44;6.68;;;3.58;;
69246;SDS011;56358;56.328;43.992;2023-02-13T11:12:45;12.27;;;4.63;;
69246;SDS011;56358;56.328;43.992;2023-02-13T11:14:56;8.65;;;4.50;;
69246;SDS011;56358;56.328;43.992;2023-02-13T11:17:00;8.88;;;3.25;;
69246;SDS011;56358;56.328;43.992;2023-02-13T11:19:47;10.02;;;3.72;;
69246;SDS011;56358;56.328;43.992;2023-02-13T11:21:39;5.35;;;2.63;;
69246;SDS011;56358;56.328;43.992;2023-02-13T11:23:44;10.02;;;3.88;;
69246;SDS011;56358;56.328;43.992;2023-02-13T11:25:54;9.35;;;3.90;;
69246;SDS011;56358;56.328;43.992;2023-02-13T11:28:12;10.35;;;3.70;;
69246;SDS011;56358;56.328;43.992;2023-02-13T11:30:30;7.38;;;3.38;;
69246;SDS011;56358;56.328;43.992;2023-02-13T11:32:34;9.55;;;2.90;;
69246;SDS011;56358;56.328;43.992;2023-02-13T11:34:35;5.65;;;2.67;;
69246;SDS011;56358;56.328;43.992;2023-02-13T11:36:35;11.10;;;3.50;;
69246;SDS011;56358;56.328;43.992;2023-02-13T11:38:36;7.65;;;2.95;;
69246;SDS011;56358;56.328;43.992;2023-02-13T11:40:37;8.18;;;3.33;;
69246;SDS011;56358;56.328;43.992;2023-02-13T11:42:41;8.25;;;3.17;;
69246;SDS011;56358;56.328;43.992;2023-02-13T11:44:43;10.13;;;3.35;;
69246;SDS011;56358;56.328;43.992;2023-02-13T11:46:51;9.43;;;2.85;;
69246;SDS011;56358;56.328;43.992;2023-02-13T11:49:00;14.85;;;5.60;;
69246;SDS011;56358;56.328;43.992;2023-02-13T11:51:05;14.88;;;5.10;;
69246;SDS011;56358;56.328;43.992;2023-02-13T11:53:07;9.60;;;3.00;;
69246;SDS011;56358;56.328;43.992;2023-02-13T11:55:26;7.40;;;2.60;;
69246;SDS011;56358;56.328;43.992;2023-02-13T11:57:30;5.07;;;3.10;;
69246;SDS011;56358;56.328;43.992;2023-02-13T11:59:40;10.90;;;3.28;;
69246;SDS011;56358;56.328;43.992;2023-02-13T12:01:42;9.07;;;3.45;;
69246;SDS011;56358;56.328;43.992;2023-02-13T12:04:01;7.90;;;3.35;;
69246;SDS011;56358;56.328;43.992;2023-02-13T12:08:09;6.35;;;3.00;;
69246;SDS011;56358;56.328;43.992;2023-02-13T12:12:18;7.68;;;2.50;;
69246;SDS011;56358;56.328;43.992;2023-02-13T12:14:38;8.10;;;2.35;;
69246;SDS011;56358;56.328;43.992;2023-02-13T12:17:03;6.68;;;2.85;;
69246;SDS011;56358;56.328;43.992;2023-02-13T12:19:06;6.70;;;2.13;;
69246;SDS011;56358;56.328;43.992;2023-02-13T12:21:26;9.15;;;2.92;;
69246;SDS011;56358;56.328;43.992;2023-02-13T12:30:29;7.47;;;2.63;;
69246;SDS011;56358;56.328;43.992;2023-02-13T12:32:57;9.90;;;2.80;;
69246;SDS011;56358;56.328;43.992;2023-02-13T12:40:02;8.05;;;2.92;;
69246;SDS011;56358;56.328;43.992;2023-02-13T12:46:39;8.95;;;3.78;;
69246;SDS011;56358;56.328;43.992;2023-02-13T12:54:01;10.30;;;3.50;;
69246;SDS011;56358;56.328;43.992;2023-02-13T12:56:23;8.90;;;3.90;;
69246;SDS011;56358;56.328;43.992;2023-02-13T13:03:24;9.70;;;4.55;;
69246;SDS011;56358;56.328;43.992;2023-02-13T13:06:09;7.55;;;2.92;;
69246;SDS011;56358;56.328;43.992;2023-02-13T13:11:27;5.65;;;3.10;;
69246;SDS011;56358;56.328;43.992;2023-02-13T13:13:23;13.00;;;2.97;;
69246;SDS011;56358;56.328;43.992;2023-02-13T13:17:57;8.18;;;3.03;;
69246;SDS011;56358;56.328;43.992;2023-02-13T13:22:17;6.45;;;2.90;;
69246;SDS011;56358;56.328;43.992;2023-02-13T13:26:41;7.78;;;2.97;;
69246;SDS011;56358;56.328;43.992;2023-02-13T13:28:45;9.90;;;3.38;;
69246;SDS011;56358;56.328;43.992;2023-02-13T13:30:48;7.57;;;3.95;;
69246;SDS011;56358;56.328;43.992;2023-02-13T13:32:51;7.50;;;4.10;;
69246;SDS011;56358;56.328;43.992;2023-02-13T13:35:00;11.88;;;4.85;;
69246;SDS011;56358;56.328;43.992;2023-02-13T13:37:15;12.63;;;4.78;;
69246;SDS011;56358;56.328;43.992;2023-02-13T13:42:00;6.75;;;3.35;;
69246;SDS011;56358;56.328;43.992;2023-02-13T13:51:05;6.18;;;2.88;;
69246;SDS011;56358;56.328;43.992;2023-02-13T13:53:14;8.93;;;4.18;;
69246;SDS011;56358;56.328;43.992;2023-02-13T13:57:58;9.35;;;3.90;;
69246;SDS011;56358;56.328;43.992;2023-02-13T14:00:01;6.97;;;2.47;;
69246;SDS011;56358;56.328;43.992;2023-02-13T14:14:58;8.32;;;3.60;;
69246;SDS011;56358;56.328;43.992;2023-02-13T14:16:59;5.28;;;2.20;;
69246;SDS011;56358;56.328;43.992;2023-02-13T14:19:01;4.40;;;2.17;;
69246;SDS011;56358;56.328;43.992;2023-02-13T14:21:03;5.53;;;2.28;;
69246;SDS011;56358;56.328;43.992;2023-02-13T14:23:12;3.78;;;1.65;;